Time;durP1;ratioP1;P1;durP2;ratioP2;P2;SDS_P1;SDS_P2;PMS_P1;PMS_P2;Temp;Humidity;BMP_temperature;BMP_pressure;BME280_temperature;BME280_humidity;BME280_pressure;Samples;Min_cycle;Max_cycle;Signal;HPM_P1;HPM_P2
2024/01/31 00:01:09;;;;;;;;;;;;;;;15.80;40.45;102940.47;5019333;28;1167;-44
2024/01/31 00:03:34;;;;;;;;;;;;;;;17.00;37.99;102942.59;5025982;28;1099;-45
2024/01/31 00:06:00;;;;;;;;;;;;;;;17.69;36.72;102941.75;5019382;28;1123;-44
2024/01/31 00:08:25;;;;;;;;;;;;;;;16.53;38.74;102944.78;5035570;28;1115;-42
2024/01/31 00:10:51;;;;;;;;;;;;;;;16.03;39.70;102937.19;5026784;28;1215;-46
2024/01/31 00:13:16;;;;;;;;;;;;;;;15.70;40.71;102940.88;5035567;28;1074;-46
2024/01/31 00:15:42;;;;;;;;;;;;;;;16.83;38.37;102944.16;5034894;28;1976;-44
2024/01/31 00:18:07;;;;;;;;;;;;;;;17.79;36.60;102937.41;5025832;28;1068;-45
2024/01/31 00:20:33;;;;;;;;;;;;;;;16.68;38.63;102942.56;5015832;28;1130;-44
2024/01/31 00:22:58;;;;;;;;;;;;;;;16.04;39.93;102941.63;5017172;28;881;-42
2024/01/31 00:25:24;;;;;;;;;;;;;;;15.76;40.55;102937.25;5016178;28;1071;-42
2024/01/31 00:27:49;;;;;;;;;;;;;;;16.49;39.10;102936.13;5025820;28;1136;-43
2024/01/31 00:30:15;;;;;;;;;;;;;;;17.70;36.87;102940.69;5031868;28;1075;-43
2024/01/31 00:32:40;;;;;;;;;;;;;;;16.86;38.20;102938.25;5025668;28;1254;-42
2024/01/31 00:35:06;;;;;;;;;;;;;;;16.15;39.46;102942.88;5025513;28;1887;-44
2024/01/31 00:37:31;;;;;;;;;;;;;;;15.81;40.50;102943.00;5025271;28;1141;-44
2024/01/31 00:39:57;;;;;;;;;;;;;;;17.06;38.11;102938.09;5031664;28;1080;-45
2024/01/31 00:42:23;;;;;;;;;;;;;;;17.57;36.74;102938.88;5035643;28;1143;-44
2024/01/31 00:44:48;;;;;;;;;;;;;;;16.60;38.47;102942.84;5038030;28;1072;-44
2024/01/31 00:47:14;;;;;;;;;;;;;;;16.01;40.02;102942.91;5026593;28;912;-47
2024/01/31 00:49:39;;;;;;;;;;;;;;;15.68;40.50;102941.09;5018716;28;1099;-44
2024/01/31 00:52:05;;;;;;;;;;;;;;;16.86;38.36;102951.97;5019226;28;1083;-45
2024/01/31 00:54:30;;;;;;;;;;;;;;;17.79;36.26;102942.91;5021271;28;1910;-45
2024/01/31 00:56:56;;;;;;;;;;;;;;;16.62;38.58;102940.72;5038171;28;1150;-44
2024/01/31 00:59:22;;;;;;;;;;;;;;;16.10;39.66;102942.66;5035366;28;1159;-43
2024/01/31 01:01:47;;;;;;;;;;;;;;;15.69;40.69;102937.28;5029702;28;1042;-46
2024/01/31 01:04:13;;;;;;;;;;;;;;;16.54;39.18;102936.31;5021025;28;1186;-43
2024/01/31 01:06:41;;;;;;;;;;;;;;;17.68;36.61;102935.38;5029582;28;1173;-44
2024/01/31 01:09:07;;;;;;;;;;;;;;;16.71;38.60;102942.13;5034204;28;1199;-44
2024/01/31 01:11:32;;;;;;;;;;;;;;;16.02;39.79;102933.63;5024766;28;901;-45
2024/01/31 01:13:58;;;;;;;;;;;;;;;15.78;40.56;102931.56;5031888;28;1194;-44
2024/01/31 01:16:23;;;;;;;;;;;;;;;16.35;39.30;102927.13;5018586;28;1890;-44
2024/01/31 01:18:49;;;;;;;;;;;;;;;17.58;36.96;102927.66;5031444;28;1435;-43
2024/01/31 01:21:14;;;;;;;;;;;;;;;16.80;38.08;102930.88;5018362;28;1127;-42
2024/01/31 01:23:40;;;;;;;;;;;;;;;16.10;39.77;102928.94;5022581;28;1079;-44
2024/01/31 01:26:05;;;;;;;;;;;;;;;15.79;40.58;102925.03;5038053;28;1047;-43
2024/01/31 01:28:31;;;;;;;;;;;;;;;16.76;38.38;102920.31;5035746;28;1126;-47
2024/01/31 01:30:56;;;;;;;;;;;;;;;17.76;36.57;102915.81;5018650;28;1065;-46
2024/01/31 01:33:22;;;;;;;;;;;;;;;16.71;38.72;102920.16;5033460;28;1172;-46
2024/01/31 01:35:47;;;;;;;;;;;;;;;16.08;40.08;102920.94;5023711;28;1972;-50
2024/01/31 01:38:13;;;;;;;;;;;;;;;15.81;40.75;102920.19;5031331;28;1147;-45
2024/01/31 01:40:44;;;;;;;;;;;;;;;17.34;37.66;102921.13;5026994;28;1223;-46
2024/01/31 01:43:14;;;;;;;;;;;;;;;17.07;38.15;102912.31;5021783;28;1250;-48
2024/01/31 01:45:40;;;;;;;;;;;;;;;16.15;39.86;102907.19;5017702;28;1056;-44
2024/01/31 01:48:05;;;;;;;;;;;;;;;15.85;40.70;102910.47;5018955;28;1230;-45
2024/01/31 01:50:31;;;;;;;;;;;;;;;15.79;40.73;102903.94;5016717;28;1157;-45
2024/01/31 01:52:56;;;;;;;;;;;;;;;17.37;37.62;102906.09;5034141;28;1132;-46
2024/01/31 01:55:22;;;;;;;;;;;;;;;17.25;37.68;102901.34;5026000;28;1965;-45
2024/01/31 01:57:47;;;;;;;;;;;;;;;16.30;39.41;102905.00;5021410;28;1206;-44
2024/01/31 02:00:13;;;;;;;;;;;;;;;15.86;40.33;102901.19;5035923;28;918;-43
2024/01/31 02:02:39;;;;;;;;;;;;;;;15.61;40.86;102899.09;5034967;28;1063;-48
2024/01/31 02:05:05;;;;;;;;;;;;;;;17.13;37.80;102894.06;5035175;28;928;-44
2024/01/31 02:07:31;;;;;;;;;;;;;;;17.44;37.28;102888.44;5023555;28;1210;-44
2024/01/31 02:09:59;;;;;;;;;;;;;;;16.45;39.06;102892.84;5028514;28;1070;-43
2024/01/31 02:12:24;;;;;;;;;;;;;;;15.94;40.12;102878.16;5031360;28;1013;-45
2024/01/31 02:14:52;;;;;;;;;;;;;;;15.65;40.74;102888.56;5024750;28;1910;-44
2024/01/31 02:17:17;;;;;;;;;;;;;;;16.90;38.39;102882.63;5023799;28;1130;-45
2024/01/31 02:19:43;;;;;;;;;;;;;;;17.66;36.75;102874.25;5037437;28;1044;-44
2024/01/31 02:22:18;;;;;;;;;;;;;;;16.46;39.11;102887.16;5020971;28;1142;-47
2024/01/31 02:24:44;;;;;;;;;;;;;;;15.90;40.37;102875.81;5024786;28;872;-45
2024/01/31 02:27:09;;;;;;;;;;;;;;;15.86;40.51;102890.19;5033632;28;1134;-45
2024/01/31 02:29:36;;;;;;;;;;;;;;;17.40;37.24;102881.75;5027098;28;1159;-44
2024/01/31 02:32:02;;;;;;;;;;;;;;;17.28;37.39;102878.06;5017200;28;1067;-43
2024/01/31 02:34:27;;;;;;;;;;;;;;;16.35;39.45;102874.94;5016891;28;1906;-44
2024/01/31 02:36:53;;;;;;;;;;;;;;;15.97;40.25;102875.78;5033326;28;853;-46
2024/01/31 02:39:19;;;;;;;;;;;;;;;16.14;39.77;102870.66;5036575;28;1091;-45
2024/01/31 02:41:44;;;;;;;;;;;;;;;17.55;36.83;102861.28;5033219;28;1135;-46
2024/01/31 02:44:10;;;;;;;;;;;;;;;16.99;38.04;102863.13;5027004;28;1167;-49
2024/01/31 02:46:37;;;;;;;;;;;;;;;16.18;39.48;102862.81;5032945;28;1087;-44
2024/01/31 02:49:02;;;;;;;;;;;;;;;15.91;40.13;102857.47;5025405;28;1205;-43
2024/01/31 02:51:28;;;;;;;;;;;;;;;15.98;40.01;102857.47;5016641;28;1028;-47
2024/01/31 02:53:53;;;;;;;;;;;;;;;17.45;37.37;102854.38;5017129;28;1135;-45
2024/01/31 02:56:19;;;;;;;;;;;;;;;16.99;37.93;102850.19;5033472;28;1981;-44
2024/01/31 02:58:44;;;;;;;;;;;;;;;16.11;39.82;102848.31;5024468;28;1371;-45
2024/01/31 03:01:10;;;;;;;;;;;;;;;15.81;40.37;102848.84;5020329;28;942;-46
2024/01/31 03:03:35;;;;;;;;;;;;;;;15.63;40.88;102850.38;5026201;28;1202;-45
2024/01/31 03:06:01;;;;;;;;;;;;;;;17.16;37.79;102852.38;5032470;28;1219;-45
2024/01/31 03:08:26;;;;;;;;;;;;;;;17.71;36.34;102835.03;5026340;28;1183;-46
2024/01/31 03:10:52;;;;;;;;;;;;;;;16.49;38.87;102844.66;5019786;28;1039;-44
2024/01/31 03:13:17;;;;;;;;;;;;;;;15.99;39.98;102835.28;5026192;28;1053;-46
2024/01/31 03:15:42;;;;;;;;;;;;;;;15.67;40.72;102843.41;5019195;28;1917;-43
2024/01/31 03:18:08;;;;;;;;;;;;;;;16.60;38.97;102846.69;5026717;28;1092;-45
2024/01/31 03:20:34;;;;;;;;;;;;;;;17.68;36.44;102836.34;5018967;28;1183;-46
2024/01/31 03:23:00;;;;;;;;;;;;;;;16.90;38.06;102835.91;5026058;28;1045;-46
2024/01/31 03:25:25;;;;;;;;;;;;;;;16.21;39.58;102840.41;5016740;28;1044;-45
2024/01/31 03:27:51;;;;;;;;;;;;;;;15.85;40.13;102836.38;5016017;28;1160;-45
2024/01/31 03:30:16;;;;;;;;;;;;;;;15.94;40.08;102829.59;5019842;28;1234;-43
2024/01/31 03:32:43;;;;;;;;;;;;;;;17.36;37.25;102839.28;5025756;28;1392;-43
2024/01/31 03:35:08;;;;;;;;;;;;;;;17.08;37.67;102842.50;5031693;28;1981;-44
2024/01/31 03:37:34;;;;;;;;;;;;;;;16.27;39.11;102839.56;5026730;28;1021;-43
2024/01/31 03:39:59;;;;;;;;;;;;;;;15.82;40.19;102843.19;5035743;28;1055;-42
2024/01/31 03:42:25;;;;;;;;;;;;;;;16.25;39.47;102847.16;5025774;28;1171;-46
2024/01/31 03:44:50;;;;;;;;;;;;;;;17.56;36.67;102832.69;5019914;28;1025;-47
2024/01/31 03:47:16;;;;;;;;;;;;;;;16.86;38.20;102839.31;5034619;28;1059;-42
2024/01/31 03:49:41;;;;;;;;;;;;;;;16.10;39.51;102841.13;5028704;28;1226;-45
2024/01/31 03:52:07;;;;;;;;;;;;;;;15.81;40.13;102832.38;5016084;28;1063;-42
2024/01/31 03:54:33;;;;;;;;;;;;;;;15.60;40.77;102839.00;5020064;28;1906;-46
2024/01/31 03:56:58;;;;;;;;;;;;;;;17.13;37.73;102833.59;5033703;28;1270;-44
2024/01/31 03:59:24;;;;;;;;;;;;;;;17.49;36.80;102834.66;5034208;28;1079;-47
2024/01/31 04:01:50;;;;;;;;;;;;;;;16.43;38.84;102836.25;5025063;28;1222;-47
2024/01/31 04:04:16;;;;;;;;;;;;;;;15.96;39.84;102845.84;5019854;28;1182;-46
2024/01/31 04:06:41;;;;;;;;;;;;;;;15.59;40.75;102845.56;5016441;28;1063;-47
2024/01/31 04:09:07;;;;;;;;;;;;;;;16.37;39.29;102833.56;5016210;28;1051;-46
2024/01/31 04:11:34;;;;;;;;;;;;;;;17.54;36.80;102829.31;5017209;28;1075;-46
2024/01/31 04:14:01;;;;;;;;;;;;;;;16.64;38.37;102836.94;5019758;28;1163;-47
2024/01/31 04:16:26;;;;;;;;;;;;;;;16.03;39.74;102844.75;5024656;28;2353;-47
2024/01/31 04:18:51;;;;;;;;;;;;;;;15.67;40.66;102837.06;5023066;28;1019;-46
2024/01/31 04:21:18;;;;;;;;;;;;;;;16.69;38.69;102845.38;5030366;28;1147;-45
2024/01/31 04:23:43;;;;;;;;;;;;;;;17.62;36.44;102848.28;5024435;28;1051;-47
2024/01/31 04:26:09;;;;;;;;;;;;;;;16.44;39.11;102842.59;5028195;28;1151;-48
2024/01/31 04:28:34;;;;;;;;;;;;;;;15.91;40.10;102835.53;5036609;28;1060;-50
2024/01/31 04:31:00;;;;;;;;;;;;;;;15.58;40.57;102847.44;5038809;28;1130;-45
2024/01/31 04:33:25;;;;;;;;;;;;;;;16.88;38.15;102842.66;5021520;28;1095;-46
2024/01/31 04:35:51;;;;;;;;;;;;;;;17.61;36.53;102849.34;5021720;28;1982;-48
2024/01/31 04:38:17;;;;;;;;;;;;;;;16.47;38.72;102847.66;5038903;28;1213;-45
2024/01/31 04:40:42;;;;;;;;;;;;;;;15.95;39.90;102861.47;5039401;28;1078;-49
2024/01/31 04:43:08;;;;;;;;;;;;;;;15.66;40.60;102857.34;5022063;28;1127;-46
2024/01/31 04:45:33;;;;;;;;;;;;;;;17.16;37.43;102858.72;5038800;28;1054;-44
2024/01/31 04:47:59;;;;;;;;;;;;;;;17.26;37.05;102850.78;5035010;28;1147;-43
2024/01/31 04:50:24;;;;;;;;;;;;;;;16.20;39.36;102860.69;5028762;28;1018;-47
2024/01/31 04:52:50;;;;;;;;;;;;;;;15.82;40.11;102853.28;5025053;28;1102;-46
2024/01/31 04:55:15;;;;;;;;;;;;;;;15.59;40.52;102859.28;5039037;28;1991;-45
2024/01/31 04:57:41;;;;;;;;;;;;;;;17.04;37.68;102858.63;5034923;28;1122;-45
2024/01/31 05:00:07;;;;;;;;;;;;;;;17.70;36.17;102858.97;5022296;28;1072;-49
2024/01/31 05:02:32;;;;;;;;;;;;;;;16.53;38.53;102857.72;5023931;28;1171;-49
2024/01/31 05:04:59;;;;;;;;;;;;;;;15.98;39.34;102855.53;5026718;28;1064;-46
2024/01/31 05:07:25;;;;;;;;;;;;;;;15.62;40.51;102865.16;5023683;28;1146;-46
2024/01/31 05:09:50;;;;;;;;;;;;;;;16.50;38.64;102862.84;5018633;28;1067;-46
2024/01/31 05:12:16;;;;;;;;;;;;;;;17.58;36.46;102858.06;5021869;28;1072;-47
2024/01/31 05:14:41;;;;;;;;;;;;;;;16.79;37.95;102855.00;5030978;28;1918;-48
2024/01/31 05:17:07;;;;;;;;;;;;;;;16.08;39.49;102855.06;5018614;28;1058;-45
2024/01/31 05:19:32;;;;;;;;;;;;;;;17.41;37.04;102853.16;5018029;28;1047;-46
2024/01/31 05:21:58;;;;;;;;;;;;;;;16.62;38.11;102858.31;5018308;28;1138;-44
2024/01/31 05:24:24;;;;;;;;;;;;;;;15.91;39.67;102858.31;5019352;28;1095;-44
2024/01/31 05:26:49;;;;;;;;;;;;;;;16.20;39.39;102863.44;5027961;28;1090;-47
2024/01/31 05:29:15;;;;;;;;;;;;;;;16.97;37.41;102860.59;5033909;28;1142;-46
2024/01/31 05:31:41;;;;;;;;;;;;;;;15.99;39.40;102857.22;5018221;28;1080;-47
2024/01/31 05:34:06;;;;;;;;;;;;;;;17.43;36.75;102862.03;5030858;28;1138;-49
2024/01/31 05:36:32;;;;;;;;;;;;;;;16.60;38.18;102863.19;5023012;28;1910;-46
2024/01/31 05:38:58;;;;;;;;;;;;;;;15.89;39.68;102854.97;5021710;28;1095;-45
2024/01/31 05:41:23;;;;;;;;;;;;;;;17.23;37.03;102850.41;5027239;28;1084;-46
2024/01/31 05:43:48;;;;;;;;;;;;;;;16.49;38.59;102858.41;5037601;28;1095;-47
2024/01/31 05:46:17;;;;;;;;;;;;;;;15.90;39.76;102847.56;5028816;28;1127;-47
2024/01/31 05:48:43;;;;;;;;;;;;;;;16.26;39.47;102862.56;5030908;28;1483;-46
2024/01/31 05:51:09;;;;;;;;;;;;;;;17.34;36.93;102851.56;5028176;28;1265;-46
2024/01/31 05:53:34;;;;;;;;;;;;;;;16.16;39.31;102854.81;5033840;28;1103;-48
2024/01/31 05:56:00;;;;;;;;;;;;;;;16.20;39.24;102853.31;5036707;28;1979;-46
2024/01/31 05:58:25;;;;;;;;;;;;;;;17.79;36.28;102845.72;5025692;28;1162;-47
2024/01/31 06:00:52;;;;;;;;;;;;;;;16.40;38.67;102853.19;5031269;28;1075;-46
2024/01/31 06:03:17;;;;;;;;;;;;;;;16.60;38.66;102852.19;5025102;28;1175;-45
2024/01/31 06:05:43;;;;;;;;;;;;;;;17.08;37.41;102848.84;5023222;28;1062;-46
2024/01/31 06:08:08;;;;;;;;;;;;;;;16.21;39.24;102859.63;5017603;28;1163;-47
2024/01/31 06:10:34;;;;;;;;;;;;;;;17.81;36.21;102851.84;5018259;28;1099;-48
2024/01/31 06:12:59;;;;;;;;;;;;;;;16.71;38.00;102859.72;5030796;28;1059;-47
2024/01/31 06:15:25;;;;;;;;;;;;;;;16.55;38.69;102854.75;5022034;28;1938;-48
2024/01/31 06:17:51;;;;;;;;;;;;;;;18.08;35.44;102852.34;5020717;28;1333;-48
2024/01/31 06:20:16;;;;;;;;;;;;;;;16.80;38.08;102859.44;5022533;28;1136;-48
2024/01/31 06:22:42;;;;;;;;;;;;;;;16.19;39.16;102862.59;5020808;28;1154;-47
2024/01/31 06:25:07;;;;;;;;;;;;;;;17.43;36.98;102869.41;5030012;28;1064;-44
2024/01/31 06:27:33;;;;;;;;;;;;;;;16.33;38.90;102868.03;5017519;28;1150;-48
2024/01/31 06:30:00;;;;;;;;;;;;;;;17.72;36.28;102867.00;5015970;28;1149;-46
2024/01/31 06:32:31;;;;;;;;;;;;;;;17.23;37.23;102867.72;5015667;28;1172;-50
2024/01/31 06:34:57;;;;;;;;;;;;;;;16.51;38.74;102870.84;5029863;28;1985;-45
2024/01/31 06:37:22;;;;;;;;;;;;;;;16.17;39.32;102869.38;5017039;28;903;-45
2024/01/31 06:39:48;;;;;;;;;;;;;;;17.85;36.04;102876.97;5022572;28;1092;-47
2024/01/31 06:42:13;;;;;;;;;;;;;;;16.58;38.53;102881.81;5024880;28;1067;-48
2024/01/31 06:44:39;;;;;;;;;;;;;;;17.76;36.38;102877.28;5017205;28;1520;-46
2024/01/31 06:47:05;;;;;;;;;;;;;;;17.52;36.38;102869.97;5027693;28;1158;-48
2024/01/31 06:49:31;;;;;;;;;;;;;;;16.68;38.36;102881.31;5017925;28;1150;-46
2024/01/31 06:51:56;;;;;;;;;;;;;;;16.25;39.14;102886.41;5028947;28;1559;-47
2024/01/31 06:54:21;;;;;;;;;;;;;;;17.84;36.16;102873.41;5023043;28;1902;-48
2024/01/31 06:56:47;;;;;;;;;;;;;;;16.74;38.10;102877.66;5036738;28;1103;-50
2024/01/31 06:59:12;;;;;;;;;;;;;;;16.23;39.24;102876.75;5035873;28;1147;-52
2024/01/31 07:01:38;;;;;;;;;;;;;;;18.13;35.54;102871.78;5016665;28;861;-52
2024/01/31 07:04:03;;;;;;;;;;;;;;;16.82;38.26;102869.13;5017408;28;1175;-55
2024/01/31 07:06:29;;;;;;;;;;;;;;;16.91;38.02;102873.34;5024000;28;1111;-56
2024/01/31 07:08:55;;;;;;;;;;;;;;;18.35;35.25;102876.75;5022620;28;1063;-56
2024/01/31 07:11:20;;;;;;;;;;;;;;;17.06;37.57;102878.47;5016905;28;1087;-55
2024/01/31 07:13:46;;;;;;;;;;;;;;;18.62;34.34;102870.84;5016607;28;1039;-54
2024/01/31 07:16:12;;;;;;;;;;;;;;;17.97;35.51;102874.34;5016433;28;1898;-53
2024/01/31 07:18:43;;;;;;;;;;;;;;;16.90;37.67;102868.91;5030000;28;1131;-56
2024/01/31 07:21:09;;;;;;;;;;;;;;;18.58;34.88;102862.22;5028199;28;1031;-54
2024/01/31 07:23:37;;;;;;;;;;;;;;;17.38;36.67;102859.13;5016142;28;1421;-52
2024/01/31 07:26:03;;;;;;;;;;;;;;;18.05;35.76;102860.25;5016358;28;859;-52
2024/01/31 07:28:37;;;;;;;;;;;;;;;18.71;34.12;102854.81;5029549;28;1098;-56
2024/01/31 07:31:05;;;;;;;;;;;;;;;17.43;36.85;102858.41;5016638;28;1044;-55
2024/01/31 07:33:31;;;;;;;;;;;;;;;18.66;34.41;102855.50;5018411;28;1051;-49
2024/01/31 07:35:56;;;;;;;;;;;;;;;17.81;36.11;102857.34;5026492;28;1961;-47
2024/01/31 07:38:22;;;;;;;;;;;;;;;17.24;37.23;102846.59;5028528;28;1080;-48
2024/01/31 07:40:47;;;;;;;;;;;;;;;16.90;37.78;102855.16;5016376;28;1155;-51
2024/01/31 07:43:13;;;;;;;;;;;;;;;17.64;36.61;102856.28;5029196;28;1079;-51
2024/01/31 07:45:39;;;;;;;;;;;;;;;17.16;37.36;102850.47;5025853;28;1183;-47
2024/01/31 07:48:05;;;;;;;;;;;;;;;17.20;37.20;102848.09;5022095;28;1032;-49
2024/01/31 07:50:30;;;;;;;;;;;;;;;18.06;35.83;102838.00;5025964;28;1230;-45
2024/01/31 07:52:56;;;;;;;;;;;;;;;17.13;37.57;102850.09;5035008;28;1143;-49
2024/01/31 07:55:21;;;;;;;;;;;;;;;18.57;34.79;102834.91;5030353;28;1965;-48
2024/01/31 07:57:47;;;;;;;;;;;;;;;17.83;36.24;102827.69;5019883;28;1234;-48
2024/01/31 08:00:13;;;;;;;;;;;;;;;18.29;35.56;102836.41;5020012;28;1128;-47
2024/01/31 08:02:38;;;;;;;;;;;;;;;19.02;34.19;102833.53;5032647;28;1098;-50
2024/01/31 08:05:05;;;;;;;;;;;;;;;17.58;36.83;102833.28;5019834;28;1126;-49
2024/01/31 08:07:30;;;;;;;;;;;;;;;17.23;37.49;102828.41;5022891;28;1080;-45
2024/01/31 08:09:56;;;;;;;;;;;;;;;18.02;36.20;102820.28;5039221;28;1503;-44
2024/01/31 08:12:21;;;;;;;;;;;;;;;17.02;37.92;102830.50;5023845;28;1520;-48
2024/01/31 08:14:47;;;;;;;;;;;;;;;18.03;36.31;102821.91;5019407;28;1891;-49
2024/01/31 08:17:12;;;;;;;;;;;;;;;17.61;36.68;102819.06;5019559;28;1143;-50
2024/01/31 08:19:38;;;;;;;;;;;;;;;17.48;37.32;102816.50;5019675;28;1098;-50
2024/01/31 08:22:03;;;;;;;;;;;;;;;18.64;34.89;102819.09;5021477;28;1079;-43
2024/01/31 08:24:29;;;;;;;;;;;;;;;17.36;37.26;102803.53;5019546;28;1210;-45
2024/01/31 08:26:54;;;;;;;;;;;;;;;17.02;38.16;102804.94;5032514;28;1413;-45
2024/01/31 08:29:20;;;;;;;;;;;;;;;18.40;35.43;102799.78;5020051;28;1195;-47
2024/01/31 08:31:46;;;;;;;;;;;;;;;17.26;37.72;102800.44;5023413;28;1139;-44
2024/01/31 08:34:11;;;;;;;;;;;;;;;18.07;36.29;102798.34;5028005;28;1111;-43
2024/01/31 08:36:37;;;;;;;;;;;;;;;17.96;36.29;102801.91;5036731;28;1991;-47
2024/01/31 08:39:03;;;;;;;;;;;;;;;17.30;37.30;102801.66;5027573;28;914;-49
2024/01/31 08:41:28;;;;;;;;;;;;;;;18.66;35.16;102797.63;5019236;28;1067;-44
2024/01/31 08:43:54;;;;;;;;;;;;;;;17.50;37.07;102797.84;5019067;28;1600;-46
2024/01/31 08:46:19;;;;;;;;;;;;;;;16.94;38.22;102797.81;5036069;28;1187;-47
2024/01/31 08:48:46;;;;;;;;;;;;;;;16.72;38.52;102803.72;5027432;28;1208;-45
2024/01/31 08:51:14;;;;;;;;;;;;;;;17.28;37.90;102806.56;5018560;28;1000;-47
2024/01/31 08:53:39;;;;;;;;;;;;;;;17.14;37.79;102799.50;5019047;28;1156;-49
2024/01/31 08:56:05;;;;;;;;;;;;;;;16.63;38.93;102799.56;5025101;28;1914;-46
2024/01/31 08:58:31;;;;;;;;;;;;;;;17.67;36.85;102785.16;5019435;28;1088;-51
2024/01/31 09:00:56;;;;;;;;;;;;;;;16.76;38.21;102785.72;5026842;28;996;-44
2024/01/31 09:03:22;;;;;;;;;;;;;;;17.25;37.68;102779.50;5020403;28;1088;-51
2024/01/31 09:05:47;;;;;;;;;;;;;;;17.51;36.80;102774.78;5018669;28;1239;-45
2024/01/31 09:08:13;;;;;;;;;;;;;;;16.76;38.38;102773.88;5031652;28;1119;-48
2024/01/31 09:10:39;;;;;;;;;;;;;;;16.48;39.18;102777.06;5018339;28;1051;-48
2024/01/31 09:13:04;;;;;;;;;;;;;;;17.02;38.04;102780.19;5021502;28;1017;-46
2024/01/31 09:15:30;;;;;;;;;;;;;;;16.46;39.17;102770.97;5028415;28;1910;-49
2024/01/31 09:17:55;;;;;;;;;;;;;;;16.58;38.94;102771.94;5018894;28;1152;-46
2024/01/31 09:20:21;;;;;;;;;;;;;;;17.49;36.77;102771.41;5027368;28;1130;-48
2024/01/31 09:22:46;;;;;;;;;;;;;;;16.62;38.73;102764.94;5025178;28;1138;-47
2024/01/31 09:25:14;;;;;;;;;;;;;;;16.24;39.35;102766.72;5022958;28;1059;-48
2024/01/31 09:27:40;;;;;;;;;;;;;;;16.56;39.09;102765.81;5018686;28;1081;-46
2024/01/31 09:30:07;;;;;;;;;;;;;;;17.58;36.80;102743.34;5031334;28;1166;-46
2024/01/31 09:32:32;;;;;;;;;;;;;;;16.56;38.76;102758.44;5031059;28;1106;-47
2024/01/31 09:34:58;;;;;;;;;;;;;;;16.64;38.81;102742.72;5019353;28;1987;-45
2024/01/31 09:37:23;;;;;;;;;;;;;;;17.54;36.91;102744.03;5031143;28;1098;-44
2024/01/31 09:39:54;;;;;;;;;;;;;;;16.70;38.43;102733.56;5028389;28;1163;-48
2024/01/31 09:42:19;;;;;;;;;;;;;;;17.55;37.09;102730.06;5021752;28;1086;-48
2024/01/31 09:44:45;;;;;;;;;;;;;;;16.99;37.84;102726.53;5023327;28;1322;-47
2024/01/31 09:47:10;;;;;;;;;;;;;;;16.46;38.84;102725.13;5028580;28;1506;-49
2024/01/31 09:49:36;;;;;;;;;;;;;;;16.21;39.57;102723.22;5035922;28;1345;-45
2024/01/31 09:52:01;;;;;;;;;;;;;;;17.56;36.91;102718.00;5028277;28;1104;-46
2024/01/31 09:54:27;;;;;;;;;;;;;;;16.54;38.90;102708.38;5022666;28;1906;-47
2024/01/31 09:56:53;;;;;;;;;;;;;;;17.75;36.38;102707.78;5030879;28;1297;-45
2024/01/31 09:59:19;;;;;;;;;;;;;;;17.27;37.16;102709.47;5021474;28;1493;-51
2024/01/31 10:01:44;;;;;;;;;;;;;;;17.35;37.48;102707.47;5024106;28;1350;-49
2024/01/31 10:04:10;;;;;;;;;;;;;;;18.53;34.97;102701.47;5019019;28;1175;-46
2024/01/31 10:06:35;;;;;;;;;;;;;;;17.14;37.60;102693.16;5037233;28;1351;-45
2024/01/31 10:09:03;;;;;;;;;;;;;;;16.72;38.55;102696.56;5023649;28;1158;-48
2024/01/31 10:11:30;;;;;;;;;;;;;;;16.46;39.09;102694.09;5027336;28;1072;-47
2024/01/31 10:13:56;;;;;;;;;;;;;;;16.28;39.17;102687.47;5029964;28;1000;-45
2024/01/31 10:16:21;;;;;;;;;;;;;;;17.86;36.20;102688.78;5026384;28;1975;-43
2024/01/31 10:18:47;;;;;;;;;;;;;;;17.02;37.73;102687.59;5030617;28;1155;-47
2024/01/31 10:21:12;;;;;;;;;;;;;;;16.48;39.10;102684.56;5026197;28;1083;-47
2024/01/31 10:23:38;;;;;;;;;;;;;;;17.77;36.55;102677.28;5036437;28;1106;-45
2024/01/31 10:26:03;;;;;;;;;;;;;;;16.70;38.40;102681.38;5029268;28;1230;-46
2024/01/31 10:28:29;;;;;;;;;;;;;;;16.82;38.27;102667.75;5022349;28;866;-44
2024/01/31 10:30:55;;;;;;;;;;;;;;;17.69;36.44;102670.19;5036575;28;1138;-42
2024/01/31 10:33:21;;;;;;;;;;;;;;;16.69;38.44;102666.81;5021804;28;1046;-44
2024/01/31 10:35:47;;;;;;;;;;;;;;;16.56;39.00;102666.94;5032777;28;1902;-46
2024/01/31 10:38:12;;;;;;;;;;;;;;;17.13;37.79;102661.25;5017529;28;1206;-44
2024/01/31 10:40:39;;;;;;;;;;;;;;;16.74;38.34;102660.63;5036665;28;1013;-43
2024/01/31 10:43:05;;;;;;;;;;;;;;;18.39;35.41;102671.38;5034658;28;1055;-44
2024/01/31 10:45:33;;;;;;;;;;;;;;;17.12;37.65;102661.47;5025154;28;1067;-44
2024/01/31 10:47:59;;;;;;;;;;;;;;;16.63;38.69;102658.63;5023033;28;1190;-43
2024/01/31 10:50:24;;;;;;;;;;;;;;;17.63;36.80;102657.38;5027408;28;2666;-46
2024/01/31 10:52:50;;;;;;;;;;;;;;;16.71;38.69;102650.94;5020738;28;1175;-45
2024/01/31 10:55:16;;;;;;;;;;;;;;;16.36;39.27;102654.25;5025992;28;1914;-45
2024/01/31 10:57:42;;;;;;;;;;;;;;;17.48;37.06;102643.22;5032873;28;1054;-44
2024/01/31 11:00:08;;;;;;;;;;;;;;;16.64;38.79;102647.41;5025276;28;1035;-44
2024/01/31 11:02:34;;;;;;;;;;;;;;;16.24;39.63;102645.94;5035252;28;1054;-45
2024/01/31 11:05:00;;;;;;;;;;;;;;;17.51;36.94;102637.25;5024882;28;1119;-42
2024/01/31 11:07:26;;;;;;;;;;;;;;;16.43;39.24;102633.06;5036186;28;1095;-46
2024/01/31 11:13:26;;;;;;;;;;;;;;;17.00;37.84;102632.03;5016435;28;907;-43
2024/01/31 11:15:52;;;;;;;;;;;;;;;16.58;38.88;102623.63;5027202;28;1910;-42
2024/01/31 11:18:17;;;;;;;;;;;;;;;16.97;38.30;102618.75;5024936;28;1150;-43
2024/01/31 11:20:49;;;;;;;;;;;;;;;16.99;37.86;102613.03;5020697;28;2421;-44
2024/01/31 11:23:25;;;;;;;;;;;;;;;16.79;38.45;102618.72;5036493;28;1081;-43
2024/01/31 11:25:51;;;;;;;;;;;;;;;18.08;36.06;102609.25;5015064;28;1024;-47
2024/01/31 11:28:17;;;;;;;;;;;;;;;16.88;38.07;102607.22;5023514;28;1097;-44
2024/01/31 11:30:43;;;;;;;;;;;;;;;16.50;39.15;102596.47;5023788;28;1056;-40
2024/01/31 11:33:08;;;;;;;;;;;;;;;17.36;37.25;102602.78;5036054;28;1012;-42
2024/01/31 11:35:34;;;;;;;;;;;;;;;16.56;38.84;102598.28;5029156;28;1898;-42
2024/01/31 11:38:00;;;;;;;;;;;;;;;18.03;36.13;102598.94;5029517;28;1179;-41
2024/01/31 11:40:25;;;;;;;;;;;;;;;17.27;37.39;102591.25;5014944;28;874;-42
2024/01/31 11:42:52;;;;;;;;;;;;;;;16.75;38.78;102579.91;5029234;28;1167;-42
2024/01/31 11:45:17;;;;;;;;;;;;;;;16.45;39.00;102580.66;5023104;28;1227;-40
2024/01/31 11:47:43;;;;;;;;;;;;;;;17.69;36.68;102590.41;5036951;28;1044;-42
2024/01/31 11:50:08;;;;;;;;;;;;;;;16.63;38.98;102579.81;5019736;28;2479;-42
2024/01/31 11:52:34;;;;;;;;;;;;;;;18.06;36.31;102579.22;5016866;28;849;-45
2024/01/31 11:54:59;;;;;;;;;;;;;;;17.71;36.68;102577.25;5023061;28;1913;-41
2024/01/31 11:57:26;;;;;;;;;;;;;;;16.81;38.39;102572.63;5035188;28;1106;-41
2024/01/31 11:59:52;;;;;;;;;;;;;;;16.64;38.77;102573.25;5022223;28;1047;-43
2024/01/31 12:02:18;;;;;;;;;;;;;;;17.90;36.48;102563.38;5022185;28;1057;-42
2024/01/31 12:04:50;;;;;;;;;;;;;;;16.75;38.66;102563.41;5024597;28;1201;-42
2024/01/31 12:07:16;;;;;;;;;;;;;;;16.51;39.09;102559.69;5016151;28;1068;-42
2024/01/31 12:09:41;;;;;;;;;;;;;;;17.59;37.23;102557.97;5022563;28;1139;-42
2024/01/31 12:12:07;;;;;;;;;;;;;;;16.58;39.12;102563.22;5035344;28;1023;-43
2024/01/31 12:14:32;;;;;;;;;;;;;;;16.32;39.51;102556.94;5029173;28;1969;-43
2024/01/31 12:16:58;;;;;;;;;;;;;;;17.87;36.49;102556.44;5018744;28;882;-43
2024/01/31 12:19:27;;;;;;;;;;;;;;;16.73;38.60;102554.53;5028868;28;1104;-44
2024/01/31 12:21:53;;;;;;;;;;;;;;;16.89;38.69;102547.63;5016250;28;2841;-41
2024/01/31 12:24:18;;;;;;;;;;;;;;;18.26;35.94;102553.22;5028586;28;1116;-43
2024/01/31 12:26:44;;;;;;;;;;;;;;;17.07;38.21;102547.56;5016215;28;1049;-41
2024/01/31 12:29:09;;;;;;;;;;;;;;;16.56;39.32;102552.44;5025154;28;1028;-44
2024/01/31 12:31:35;;;;;;;;;;;;;;;16.39;39.80;102535.72;5015796;28;1095;-46
2024/01/31 12:34:02;;;;;;;;;;;;;;;17.68;37.47;102536.44;5022825;28;1187;-42
2024/01/31 12:36:27;;;;;;;;;;;;;;;16.77;38.79;102534.66;5021705;28;1980;-43
2024/01/31 12:38:53;;;;;;;;;;;;;;;18.17;36.60;102540.91;5030501;28;1082;-42
2024/01/31 12:41:18;;;;;;;;;;;;;;;18.20;36.12;102540.41;5036030;28;936;-42
2024/01/31 12:43:44;;;;;;;;;;;;;;;17.21;38.09;102544.63;5019101;28;1122;-42